sensor_id;sensor_type;location;lat;lon;timestamp;P1;durP1;ratioP1;P2;durP2;ratioP2
38785;SDS011;24535;45.508;12.252;2023-02-01T00:01:43;151.40;;;102.32;;
38785;SDS011;24535;45.508;12.252;2023-02-01T00:04:09;145.07;;;97.22;;
38785;SDS011;24535;45.508;12.252;2023-02-01T00:06:34;151.43;;;102.20;;
38785;SDS011;24535;45.508;12.252;2023-02-01T00:09:00;151.30;;;99.55;;
38785;SDS011;24535;45.508;12.252;2023-02-01T00:11:26;146.52;;;100.72;;
38785;SDS011;24535;45.508;12.252;2023-02-01T00:13:51;143.48;;;99.93;;
38785;SDS011;24535;45.508;12.252;2023-02-01T00:16:18;150.68;;;100.25;;
38785;SDS011;24535;45.508;12.252;2023-02-01T00:18:49;147.60;;;99.43;;
38785;SDS011;24535;45.508;12.252;2023-02-01T00:21:17;147.48;;;101.28;;
38785;SDS011;24535;45.508;12.252;2023-02-01T00:23:45;153.23;;;101.47;;
38785;SDS011;24535;45.508;12.252;2023-02-01T00:26:14;143.65;;;96.32;;
38785;SDS011;24535;45.508;12.252;2023-02-01T00:28:42;139.25;;;97.68;;
38785;SDS011;24535;45.508;12.252;2023-02-01T00:31:07;147.25;;;97.60;;
38785;SDS011;24535;45.508;12.252;2023-02-01T00:33:33;149.52;;;98.53;;
38785;SDS011;24535;45.508;12.252;2023-02-01T00:35:59;142.57;;;96.78;;
38785;SDS011;24535;45.508;12.252;2023-02-01T00:38:27;147.30;;;99.20;;
38785;SDS011;24535;45.508;12.252;2023-02-01T00:40:55;138.60;;;94.97;;
38785;SDS011;24535;45.508;12.252;2023-02-01T00:43:27;139.45;;;96.65;;
38785;SDS011;24535;45.508;12.252;2023-02-01T00:45:53;139.70;;;97.63;;
38785;SDS011;24535;45.508;12.252;2023-02-01T00:48:18;149.95;;;98.70;;
38785;SDS011;24535;45.508;12.252;2023-02-01T00:50:44;147.23;;;97.18;;
38785;SDS011;24535;45.508;12.252;2023-02-01T00:53:10;144.38;;;97.38;;
38785;SDS011;24535;45.508;12.252;2023-02-01T00:55:36;149.77;;;99.60;;
38785;SDS011;24535;45.508;12.252;2023-02-01T00:58:01;145.00;;;98.45;;
38785;SDS011;24535;45.508;12.252;2023-02-01T01:00:28;138.98;;;96.32;;
38785;SDS011;24535;45.508;12.252;2023-02-01T01:02:54;144.63;;;98.15;;
38785;SDS011;24535;45.508;12.252;2023-02-01T01:05:19;141.20;;;98.35;;
38785;SDS011;24535;45.508;12.252;2023-02-01T01:07:45;152.20;;;99.03;;
38785;SDS011;24535;45.508;12.252;2023-02-01T01:10:13;145.85;;;98.45;;
38785;SDS011;24535;45.508;12.252;2023-02-01T01:12:39;144.02;;;96.28;;
38785;SDS011;24535;45.508;12.252;2023-02-01T01:15:06;142.35;;;94.43;;
38785;SDS011;24535;45.508;12.252;2023-02-01T01:17:32;144.73;;;96.45;;
38785;SDS011;24535;45.508;12.252;2023-02-01T01:19:58;142.40;;;96.13;;
38785;SDS011;24535;45.508;12.252;2023-02-01T01:22:23;142.80;;;94.20;;
38785;SDS011;24535;45.508;12.252;2023-02-01T01:24:49;138.23;;;94.20;;
38785;SDS011;24535;45.508;12.252;2023-02-01T01:27:14;135.45;;;92.95;;
38785;SDS011;24535;45.508;12.252;2023-02-01T01:29:40;148.40;;;98.68;;
38785;SDS011;24535;45.508;12.252;2023-02-01T01:32:05;146.43;;;96.55;;
38785;SDS011;24535;45.508;12.252;2023-02-01T01:34:31;139.40;;;94.60;;
38785;SDS011;24535;45.508;12.252;2023-02-01T01:36:56;138.85;;;92.18;;
38785;SDS011;24535;45.508;12.252;2023-02-01T01:39:22;136.52;;;93.05;;
38785;SDS011;24535;45.508;12.252;2023-02-01T01:41:47;139.95;;;93.82;;
38785;SDS011;24535;45.508;12.252;2023-02-01T01:47:16;136.27;;;93.05;;
38785;SDS011;24535;45.508;12.252;2023-02-01T01:49:41;142.68;;;94.03;;
38785;SDS011;24535;45.508;12.252;2023-02-01T01:52:07;136.27;;;93.18;;
38785;SDS011;24535;45.508;12.252;2023-02-01T01:54:35;139.75;;;93.78;;
38785;SDS011;24535;45.508;12.252;2023-02-01T01:57:10;141.13;;;90.72;;
38785;SDS011;24535;45.508;12.252;2023-02-01T01:59:40;141.88;;;94.25;;
38785;SDS011;24535;45.508;12.252;2023-02-01T02:02:08;137.83;;;90.17;;
38785;SDS011;24535;45.508;12.252;2023-02-01T02:04:34;131.50;;;88.70;;
38785;SDS011;24535;45.508;12.252;2023-02-01T02:07:05;130.32;;;86.82;;
38785;SDS011;24535;45.508;12.252;2023-02-01T02:09:35;125.47;;;84.65;;
38785;SDS011;24535;45.508;12.252;2023-02-01T02:12:00;121.45;;;82.97;;
38785;SDS011;24535;45.508;12.252;2023-02-01T02:14:26;120.68;;;81.30;;
38785;SDS011;24535;45.508;12.252;2023-02-01T02:16:55;119.20;;;78.30;;
38785;SDS011;24535;45.508;12.252;2023-02-01T02:22:23;104.80;;;71.72;;
38785;SDS011;24535;45.508;12.252;2023-02-01T02:38:41;109.15;;;70.15;;
38785;SDS011;24535;45.508;12.252;2023-02-01T02:41:19;93.70;;;67.50;;
38785;SDS011;24535;45.508;12.252;2023-02-01T02:44:09;104.32;;;69.10;;
38785;SDS011;24535;45.508;12.252;2023-02-01T02:53:02;98.93;;;64.15;;
38785;SDS011;24535;45.508;12.252;2023-02-01T02:55:55;103.07;;;64.53;;
38785;SDS011;24535;45.508;12.252;2023-02-01T02:58:41;95.32;;;63.67;;
38785;SDS011;24535;45.508;12.252;2023-02-01T03:01:27;100.70;;;63.20;;
38785;SDS011;24535;45.508;12.252;2023-02-01T03:04:12;96.05;;;65.30;;
38785;SDS011;24535;45.508;12.252;2023-02-01T03:06:42;94.68;;;64.93;;
38785;SDS011;24535;45.508;12.252;2023-02-01T03:09:10;97.07;;;62.03;;
38785;SDS011;24535;45.508;12.252;2023-02-01T03:11:41;95.93;;;63.88;;
38785;SDS011;24535;45.508;12.252;2023-02-01T03:14:30;102.10;;;63.55;;
38785;SDS011;24535;45.508;12.252;2023-02-01T03:17:08;101.22;;;64.40;;
38785;SDS011;24535;45.508;12.252;2023-02-01T03:19:42;91.47;;;62.60;;
38785;SDS011;24535;45.508;12.252;2023-02-01T03:22:16;91.97;;;63.35;;
38785;SDS011;24535;45.508;12.252;2023-02-01T03:24:57;96.90;;;62.22;;
38785;SDS011;24535;45.508;12.252;2023-02-01T03:27:29;91.93;;;60.60;;
38785;SDS011;24535;45.508;12.252;2023-02-01T03:30:01;103.15;;;62.90;;
38785;SDS011;24535;45.508;12.252;2023-02-01T03:32:35;98.95;;;66.13;;
38785;SDS011;24535;45.508;12.252;2023-02-01T03:35:20;84.97;;;60.25;;
38785;SDS011;24535;45.508;12.252;2023-02-01T03:37:54;91.82;;;63.72;;
38785;SDS011;24535;45.508;12.252;2023-02-01T03:40:26;93.45;;;62.88;;
38785;SDS011;24535;45.508;12.252;2023-02-01T03:42:54;94.50;;;61.05;;
38785;SDS011;24535;45.508;12.252;2023-02-01T03:45:26;94.72;;;63.90;;
38785;SDS011;24535;45.508;12.252;2023-02-01T03:47:56;94.43;;;61.80;;
38785;SDS011;24535;45.508;12.252;2023-02-01T03:50:25;94.30;;;62.40;;
38785;SDS011;24535;45.508;12.252;2023-02-01T03:52:53;97.53;;;63.63;;
38785;SDS011;24535;45.508;12.252;2023-02-01T03:55:36;92.55;;;61.47;;
38785;SDS011;24535;45.508;12.252;2023-02-01T04:00:30;94.07;;;63.70;;
38785;SDS011;24535;45.508;12.252;2023-02-01T04:02:56;86.88;;;60.03;;
38785;SDS011;24535;45.508;12.252;2023-02-01T04:05:22;92.03;;;60.63;;
38785;SDS011;24535;45.508;12.252;2023-02-01T04:07:48;94.45;;;60.92;;
38785;SDS011;24535;45.508;12.252;2023-02-01T04:10:13;96.60;;;61.28;;
38785;SDS011;24535;45.508;12.252;2023-02-01T04:12:39;88.72;;;62.55;;
38785;SDS011;24535;45.508;12.252;2023-02-01T04:15:05;95.78;;;61.63;;
38785;SDS011;24535;45.508;12.252;2023-02-01T04:17:31;82.68;;;56.95;;
38785;SDS011;24535;45.508;12.252;2023-02-01T04:19:56;86.47;;;57.67;;
38785;SDS011;24535;45.508;12.252;2023-02-01T04:22:22;90.43;;;61.30;;
38785;SDS011;24535;45.508;12.252;2023-02-01T04:24:47;87.82;;;59.53;;
38785;SDS011;24535;45.508;12.252;2023-02-01T04:27:13;93.22;;;61.72;;
38785;SDS011;24535;45.508;12.252;2023-02-01T04:29:39;85.75;;;60.13;;
38785;SDS011;24535;45.508;12.252;2023-02-01T04:32:04;91.97;;;59.35;;
38785;SDS011;24535;45.508;12.252;2023-02-01T04:34:30;91.35;;;59.90;;
38785;SDS011;24535;45.508;12.252;2023-02-01T04:36:56;93.13;;;61.00;;
38785;SDS011;24535;45.508;12.252;2023-02-01T04:39:21;92.47;;;60.88;;
38785;SDS011;24535;45.508;12.252;2023-02-01T04:41:47;89.30;;;58.83;;
38785;SDS011;24535;45.508;12.252;2023-02-01T04:44:14;90.60;;;59.17;;
38785;SDS011;24535;45.508;12.252;2023-02-01T04:46:41;92.15;;;60.80;;
38785;SDS011;24535;45.508;12.252;2023-02-01T04:49:08;90.07;;;59.70;;
38785;SDS011;24535;45.508;12.252;2023-02-01T04:51:34;93.38;;;58.63;;
38785;SDS011;24535;45.508;12.252;2023-02-01T04:54:00;95.03;;;60.90;;
38785;SDS011;24535;45.508;12.252;2023-02-01T04:56:25;93.78;;;60.15;;
38785;SDS011;24535;45.508;12.252;2023-02-01T04:58:51;95.05;;;60.45;;
38785;SDS011;24535;45.508;12.252;2023-02-01T05:01:16;87.68;;;57.20;;
38785;SDS011;24535;45.508;12.252;2023-02-01T05:03:42;87.35;;;57.15;;
38785;SDS011;24535;45.508;12.252;2023-02-01T05:06:08;82.32;;;57.55;;
38785;SDS011;24535;45.508;12.252;2023-02-01T05:08:33;86.95;;;58.78;;
38785;SDS011;24535;45.508;12.252;2023-02-01T05:10:59;89.57;;;58.58;;
38785;SDS011;24535;45.508;12.252;2023-02-01T05:13:27;81.90;;;55.92;;
38785;SDS011;24535;45.508;12.252;2023-02-01T05:16:12;89.97;;;57.97;;
38785;SDS011;24535;45.508;12.252;2023-02-01T05:18:38;84.00;;;57.83;;
38785;SDS011;24535;45.508;12.252;2023-02-01T05:21:03;99.18;;;59.63;;
38785;SDS011;24535;45.508;12.252;2023-02-01T05:23:29;90.22;;;60.40;;
38785;SDS011;24535;45.508;12.252;2023-02-01T05:25:58;90.85;;;61.42;;
38785;SDS011;24535;45.508;12.252;2023-02-01T05:28:25;87.43;;;56.75;;
38785;SDS011;24535;45.508;12.252;2023-02-01T05:30:51;87.72;;;57.88;;
38785;SDS011;24535;45.508;12.252;2023-02-01T05:33:16;84.65;;;57.13;;
38785;SDS011;24535;45.508;12.252;2023-02-01T05:35:42;86.35;;;57.47;;
38785;SDS011;24535;45.508;12.252;2023-02-01T05:38:07;93.00;;;59.42;;
38785;SDS011;24535;45.508;12.252;2023-02-01T05:40:34;92.20;;;58.72;;
38785;SDS011;24535;45.508;12.252;2023-02-01T05:42:59;86.57;;;58.10;;
38785;SDS011;24535;45.508;12.252;2023-02-01T05:45:25;88.07;;;58.20;;
38785;SDS011;24535;45.508;12.252;2023-02-01T05:47:50;78.35;;;54.17;;
38785;SDS011;24535;45.508;12.252;2023-02-01T05:50:16;80.25;;;54.72;;
38785;SDS011;24535;45.508;12.252;2023-02-01T05:52:42;91.35;;;58.55;;
38785;SDS011;24535;45.508;12.252;2023-02-01T05:55:07;86.47;;;57.17;;
38785;SDS011;24535;45.508;12.252;2023-02-01T05:57:33;85.30;;;58.08;;
38785;SDS011;24535;45.508;12.252;2023-02-01T05:59:58;89.50;;;58.70;;
38785;SDS011;24535;45.508;12.252;2023-02-01T06:02:24;87.05;;;58.05;;
38785;SDS011;24535;45.508;12.252;2023-02-01T06:04:50;91.97;;;59.13;;
38785;SDS011;24535;45.508;12.252;2023-02-01T06:07:15;88.82;;;60.30;;
38785;SDS011;24535;45.508;12.252;2023-02-01T06:09:41;89.40;;;60.35;;
38785;SDS011;24535;45.508;12.252;2023-02-01T06:12:06;93.63;;;59.42;;
38785;SDS011;24535;45.508;12.252;2023-02-01T06:14:32;85.45;;;57.55;;
38785;SDS011;24535;45.508;12.252;2023-02-01T06:16:57;94.60;;;59.88;;
38785;SDS011;24535;45.508;12.252;2023-02-01T06:19:23;91.18;;;59.30;;
38785;SDS011;24535;45.508;12.252;2023-02-01T06:21:48;87.13;;;56.55;;
38785;SDS011;24535;45.508;12.252;2023-02-01T06:24:14;92.88;;;59.90;;
38785;SDS011;24535;45.508;12.252;2023-02-01T06:26:40;91.22;;;60.58;;
38785;SDS011;24535;45.508;12.252;2023-02-01T06:29:12;92.85;;;59.22;;
38785;SDS011;24535;45.508;12.252;2023-02-01T06:31:37;96.47;;;62.70;;
38785;SDS011;24535;45.508;12.252;2023-02-01T06:34:03;94.38;;;58.58;;
38785;SDS011;24535;45.508;12.252;2023-02-01T06:36:29;87.07;;;59.75;;
38785;SDS011;24535;45.508;12.252;2023-02-01T06:38:55;89.32;;;60.47;;
38785;SDS011;24535;45.508;12.252;2023-02-01T06:41:24;92.90;;;61.95;;
38785;SDS011;24535;45.508;12.252;2023-02-01T06:43:50;100.75;;;63.63;;
38785;SDS011;24535;45.508;12.252;2023-02-01T06:46:16;98.57;;;62.40;;
38785;SDS011;24535;45.508;12.252;2023-02-01T06:48:42;87.28;;;58.97;;
38785;SDS011;24535;45.508;12.252;2023-02-01T06:51:20;91.22;;;60.88;;
38785;SDS011;24535;45.508;12.252;2023-02-01T06:53:47;95.80;;;62.30;;
38785;SDS011;24535;45.508;12.252;2023-02-01T06:56:13;93.88;;;63.38;;
38785;SDS011;24535;45.508;12.252;2023-02-01T06:58:38;94.63;;;61.72;;
38785;SDS011;24535;45.508;12.252;2023-02-01T07:01:04;89.88;;;63.95;;
38785;SDS011;24535;45.508;12.252;2023-02-01T07:03:31;96.75;;;62.78;;
38785;SDS011;24535;45.508;12.252;2023-02-01T07:05:57;90.85;;;60.58;;
38785;SDS011;24535;45.508;12.252;2023-02-01T07:08:29;93.43;;;62.63;;
38785;SDS011;24535;45.508;12.252;2023-02-01T07:10:55;98.28;;;62.92;;
38785;SDS011;24535;45.508;12.252;2023-02-01T07:13:21;106.68;;;65.75;;
38785;SDS011;24535;45.508;12.252;2023-02-01T07:15:47;98.38;;;65.00;;
38785;SDS011;24535;45.508;12.252;2023-02-01T07:18:13;99.80;;;63.83;;
38785;SDS011;24535;45.508;12.252;2023-02-01T07:20:39;97.32;;;65.10;;
38785;SDS011;24535;45.508;12.252;2023-02-01T07:23:05;90.60;;;61.50;;
38785;SDS011;24535;45.508;12.252;2023-02-01T07:25:30;93.03;;;63.47;;
38785;SDS011;24535;45.508;12.252;2023-02-01T07:27:56;99.00;;;62.95;;
38785;SDS011;24535;45.508;12.252;2023-02-01T07:30:22;103.78;;;67.95;;
38785;SDS011;24535;45.508;12.252;2023-02-01T07:32:48;104.13;;;68.72;;
38785;SDS011;24535;45.508;12.252;2023-02-01T07:35:14;94.60;;;64.63;;
38785;SDS011;24535;45.508;12.252;2023-02-01T07:37:39;106.90;;;70.47;;
38785;SDS011;24535;45.508;12.252;2023-02-01T07:40:05;95.93;;;64.85;;
38785;SDS011;24535;45.508;12.252;2023-02-01T07:42:32;91.80;;;63.08;;
38785;SDS011;24535;45.508;12.252;2023-02-01T07:44:58;98.88;;;67.28;;
38785;SDS011;24535;45.508;12.252;2023-02-01T07:47:24;98.75;;;68.13;;
38785;SDS011;24535;45.508;12.252;2023-02-01T07:49:49;99.05;;;66.82;;
38785;SDS011;24535;45.508;12.252;2023-02-01T07:52:15;94.63;;;63.45;;
38785;SDS011;24535;45.508;12.252;2023-02-01T07:54:43;89.60;;;62.05;;
38785;SDS011;24535;45.508;12.252;2023-02-01T07:57:08;89.97;;;61.78;;
38785;SDS011;24535;45.508;12.252;2023-02-01T07:59:36;93.97;;;62.47;;
38785;SDS011;24535;45.508;12.252;2023-02-01T08:02:21;94.40;;;63.80;;
38785;SDS011;24535;45.508;12.252;2023-02-01T08:04:47;90.70;;;64.93;;
38785;SDS011;24535;45.508;12.252;2023-02-01T08:07:12;94.55;;;63.08;;
38785;SDS011;24535;45.508;12.252;2023-02-01T08:09:37;94.97;;;66.95;;
38785;SDS011;24535;45.508;12.252;2023-02-01T08:12:03;94.28;;;67.18;;
38785;SDS011;24535;45.508;12.252;2023-02-01T08:14:29;89.97;;;60.05;;
38785;SDS011;24535;45.508;12.252;2023-02-01T08:16:54;89.80;;;62.25;;
38785;SDS011;24535;45.508;12.252;2023-02-01T08:19:19;81.28;;;57.25;;
38785;SDS011;24535;45.508;12.252;2023-02-01T08:21:45;100.40;;;65.25;;
38785;SDS011;24535;45.508;12.252;2023-02-01T08:24:13;90.83;;;63.33;;
38785;SDS011;24535;45.508;12.252;2023-02-01T08:26:39;94.10;;;63.85;;
38785;SDS011;24535;45.508;12.252;2023-02-01T08:29:05;98.28;;;64.85;;
38785;SDS011;24535;45.508;12.252;2023-02-01T08:31:31;99.30;;;64.93;;
38785;SDS011;24535;45.508;12.252;2023-02-01T08:33:58;99.05;;;65.47;;
38785;SDS011;24535;45.508;12.252;2023-02-01T08:36:26;89.30;;;62.70;;
38785;SDS011;24535;45.508;12.252;2023-02-01T08:38:53;92.57;;;61.38;;
38785;SDS011;24535;45.508;12.252;2023-02-01T08:41:19;94.68;;;66.63;;
38785;SDS011;24535;45.508;12.252;2023-02-01T08:43:47;99.30;;;65.45;;
38785;SDS011;24535;45.508;12.252;2023-02-01T08:46:13;93.43;;;61.75;;
38785;SDS011;24535;45.508;12.252;2023-02-01T08:48:38;92.35;;;61.58;;
38785;SDS011;24535;45.508;12.252;2023-02-01T08:51:05;88.97;;;60.53;;
38785;SDS011;24535;45.508;12.252;2023-02-01T08:53:33;92.82;;;61.15;;
38785;SDS011;24535;45.508;12.252;2023-02-01T08:55:59;86.95;;;59.10;;
38785;SDS011;24535;45.508;12.252;2023-02-01T08:58:28;87.70;;;59.97;;
38785;SDS011;24535;45.508;12.252;2023-02-01T09:00:54;90.75;;;63.03;;
38785;SDS011;24535;45.508;12.252;2023-02-01T09:03:20;80.05;;;54.60;;
38785;SDS011;24535;45.508;12.252;2023-02-01T09:05:46;81.53;;;57.13;;
38785;SDS011;24535;45.508;12.252;2023-02-01T09:08:12;73.97;;;50.40;;
38785;SDS011;24535;45.508;12.252;2023-02-01T09:10:39;79.90;;;56.70;;
38785;SDS011;24535;45.508;12.252;2023-02-01T09:13:06;81.35;;;53.80;;
38785;SDS011;24535;45.508;12.252;2023-02-01T09:15:32;75.88;;;51.80;;
38785;SDS011;24535;45.508;12.252;2023-02-01T09:17:58;79.30;;;52.40;;
38785;SDS011;24535;45.508;12.252;2023-02-01T09:20:23;76.97;;;51.67;;
38785;SDS011;24535;45.508;12.252;2023-02-01T09:22:50;84.82;;;56.15;;
38785;SDS011;24535;45.508;12.252;2023-02-01T09:25:19;82.38;;;55.38;;
38785;SDS011;24535;45.508;12.252;2023-02-01T09:27:44;75.82;;;50.03;;
38785;SDS011;24535;45.508;12.252;2023-02-01T09:30:10;83.53;;;52.70;;
38785;SDS011;24535;45.508;12.252;2023-02-01T09:32:36;76.50;;;53.15;;
38785;SDS011;24535;45.508;12.252;2023-02-01T09:35:01;77.97;;;55.97;;
38785;SDS011;24535;45.508;12.252;2023-02-01T09:37:27;85.38;;;56.92;;
38785;SDS011;24535;45.508;12.252;2023-02-01T09:39:53;77.63;;;48.72;;
38785;SDS011;24535;45.508;12.252;2023-02-01T09:42:21;76.65;;;50.50;;
38785;SDS011;24535;45.508;12.252;2023-02-01T09:47:22;81.80;;;52.50;;
38785;SDS011;24535;45.508;12.252;2023-02-01T09:49:54;89.78;;;64.10;;
38785;SDS011;24535;45.508;12.252;2023-02-01T09:52:31;78.95;;;50.42;;
38785;SDS011;24535;45.508;12.252;2023-02-01T09:55:07;71.32;;;48.00;;
38785;SDS011;24535;45.508;12.252;2023-02-01T09:57:45;68.97;;;48.10;;
38785;SDS011;24535;45.508;12.252;2023-02-01T10:00:25;81.93;;;52.42;;
38785;SDS011;24535;45.508;12.252;2023-02-01T10:02:55;73.47;;;50.42;;
38785;SDS011;24535;45.508;12.252;2023-02-01T10:05:27;60.80;;;45.75;;
38785;SDS011;24535;45.508;12.252;2023-02-01T10:10:38;68.30;;;46.58;;
38785;SDS011;24535;45.508;12.252;2023-02-01T10:15:57;61.05;;;44.60;;
38785;SDS011;24535;45.508;12.252;2023-02-01T10:18:37;66.25;;;45.55;;
38785;SDS011;24535;45.508;12.252;2023-02-01T10:21:10;64.43;;;44.15;;
38785;SDS011;24535;45.508;12.252;2023-02-01T10:24:11;64.32;;;42.03;;
38785;SDS011;24535;45.508;12.252;2023-02-01T10:26:42;70.97;;;44.00;;
38785;SDS011;24535;45.508;12.252;2023-02-01T10:29:17;65.30;;;43.33;;
38785;SDS011;24535;45.508;12.252;2023-02-01T10:31:45;63.85;;;44.70;;
38785;SDS011;24535;45.508;12.252;2023-02-01T10:34:27;59.67;;;42.03;;
38785;SDS011;24535;45.508;12.252;2023-02-01T10:36:58;67.10;;;47.08;;
38785;SDS011;24535;45.508;12.252;2023-02-01T10:39:26;56.40;;;40.45;;
38785;SDS011;24535;45.508;12.252;2023-02-01T10:41:52;62.95;;;44.83;;
38785;SDS011;24535;45.508;12.252;2023-02-01T10:44:25;59.08;;;42.50;;
38785;SDS011;24535;45.508;12.252;2023-02-01T10:46:53;62.92;;;43.50;;
38785;SDS011;24535;45.508;12.252;2023-02-01T10:52:12;60.58;;;42.17;;
38785;SDS011;24535;45.508;12.252;2023-02-01T10:54:41;67.43;;;47.63;;
38785;SDS011;24535;45.508;12.252;2023-02-01T10:57:19;63.40;;;43.42;;
38785;SDS011;24535;45.508;12.252;2023-02-01T10:59:55;69.13;;;45.95;;
38785;SDS011;24535;45.508;12.252;2023-02-01T11:05:12;58.75;;;41.33;;
38785;SDS011;24535;45.508;12.252;2023-02-01T11:07:45;56.67;;;39.60;;
38785;SDS011;24535;45.508;12.252;2023-02-01T11:10:46;58.80;;;41.67;;
38785;SDS011;24535;45.508;12.252;2023-02-01T11:13:27;64.22;;;42.53;;
38785;SDS011;24535;45.508;12.252;2023-02-01T11:15:57;59.67;;;40.58;;
38785;SDS011;24535;45.508;12.252;2023-02-01T11:18:30;57.85;;;43.80;;
38785;SDS011;24535;45.508;12.252;2023-02-01T11:21:00;59.70;;;41.40;;
38785;SDS011;24535;45.508;12.252;2023-02-01T11:23:27;70.63;;;47.92;;
38785;SDS011;24535;45.508;12.252;2023-02-01T11:25:58;59.92;;;42.58;;
38785;SDS011;24535;45.508;12.252;2023-02-01T11:28:34;69.30;;;47.58;;
38785;SDS011;24535;45.508;12.252;2023-02-01T11:31:05;70.03;;;47.78;;
38785;SDS011;24535;45.508;12.252;2023-02-01T11:33:36;66.82;;;47.42;;
38785;SDS011;24535;45.508;12.252;2023-02-01T11:36:10;71.57;;;48.50;;
38785;SDS011;24535;45.508;12.252;2023-02-01T11:38:40;68.35;;;45.50;;
38785;SDS011;24535;45.508;12.252;2023-02-01T11:41:31;63.08;;;43.17;;
38785;SDS011;24535;45.508;12.252;2023-02-01T11:43:58;68.47;;;47.15;;
38785;SDS011;24535;45.508;12.252;2023-02-01T11:46:29;73.97;;;50.17;;
38785;SDS011;24535;45.508;12.252;2023-02-01T11:51:54;59.42;;;43.42;;
38785;SDS011;24535;45.508;12.252;2023-02-01T11:54:29;60.03;;;40.88;;
38785;SDS011;24535;45.508;12.252;2023-02-01T12:19:02;64.65;;;46.50;;
38785;SDS011;24535;45.508;12.252;2023-02-01T12:41:24;70.95;;;46.95;;
38785;SDS011;24535;45.508;12.252;2023-02-01T12:43:56;62.20;;;42.92;;
38785;SDS011;24535;45.508;12.252;2023-02-01T12:46:33;65.15;;;43.00;;
38785;SDS011;24535;45.508;12.252;2023-02-01T12:49:05;73.15;;;46.33;;
38785;SDS011;24535;45.508;12.252;2023-02-01T12:51:39;68.53;;;43.45;;
38785;SDS011;24535;45.508;12.252;2023-02-01T12:57:08;64.90;;;41.70;;
38785;SDS011;24535;45.508;12.252;2023-02-01T12:59:47;60.30;;;42.13;;
38785;SDS011;24535;45.508;12.252;2023-02-01T13:02:21;60.47;;;40.85;;
38785;SDS011;24535;45.508;12.252;2023-02-01T13:04:59;57.05;;;38.25;;
38785;SDS011;24535;45.508;12.252;2023-02-01T13:07:37;58.55;;;39.20;;
38785;SDS011;24535;45.508;12.252;2023-02-01T13:10:15;57.15;;;40.15;;
38785;SDS011;24535;45.508;12.252;2023-02-01T13:12:47;59.47;;;40.33;;
38785;SDS011;24535;45.508;12.252;2023-02-01T13:15:20;61.00;;;39.03;;
38785;SDS011;24535;45.508;12.252;2023-02-01T13:17:51;55.22;;;38.88;;
38785;SDS011;24535;45.508;12.252;2023-02-01T13:28:20;67.05;;;45.88;;
38785;SDS011;24535;45.508;12.252;2023-02-01T13:39:49;62.55;;;41.25;;
38785;SDS011;24535;45.508;12.252;2023-02-01T13:45:01;58.53;;;40.08;;
38785;SDS011;24535;45.508;12.252;2023-02-01T13:47:43;61.40;;;39.63;;
38785;SDS011;24535;45.508;12.252;2023-02-01T13:50:18;67.57;;;46.83;;
38785;SDS011;24535;45.508;12.252;2023-02-01T13:55:40;64.50;;;42.83;;
38785;SDS011;24535;45.508;12.252;2023-02-01T13:58:15;79.15;;;51.47;;
38785;SDS011;24535;45.508;12.252;2023-02-01T14:03:58;62.63;;;45.50;;
38785;SDS011;24535;45.508;12.252;2023-02-01T14:11:39;64.97;;;43.03;;
38785;SDS011;24535;45.508;12.252;2023-02-01T14:16:44;63.95;;;40.67;;
38785;SDS011;24535;45.508;12.252;2023-02-01T14:21:49;62.42;;;42.40;;
38785;SDS011;24535;45.508;12.252;2023-02-01T14:26:50;64.90;;;41.83;;
38785;SDS011;24535;45.508;12.252;2023-02-01T14:34:19;59.55;;;42.00;;
38785;SDS011;24535;45.508;12.252;2023-02-01T14:36:48;56.95;;;40.67;;
38785;SDS011;24535;45.508;12.252;2023-02-01T14:44:39;72.07;;;50.85;;
38785;SDS011;24535;45.508;12.252;2023-02-01T14:49:34;78.57;;;54.13;;
38785;SDS011;24535;45.508;12.252;2023-02-01T14:52:05;80.57;;;52.15;;
38785;SDS011;24535;45.508;12.252;2023-02-01T14:54:35;76.40;;;48.92;;
38785;SDS011;24535;45.508;12.252;2023-02-01T14:57:02;67.20;;;48.28;;
38785;SDS011;24535;45.508;12.252;2023-02-01T14:59:29;63.63;;;45.75;;
38785;SDS011;24535;45.508;12.252;2023-02-01T15:01:58;66.05;;;45.97;;
38785;SDS011;24535;45.508;12.252;2023-02-01T15:04:26;66.93;;;49.33;;
38785;SDS011;24535;45.508;12.252;2023-02-01T15:07:04;68.15;;;46.95;;
38785;SDS011;24535;45.508;12.252;2023-02-01T15:09:38;66.35;;;42.95;;
38785;SDS011;24535;45.508;12.252;2023-02-01T15:15:05;67.72;;;45.08;;
38785;SDS011;24535;45.508;12.252;2023-02-01T15:17:34;63.95;;;42.40;;
38785;SDS011;24535;45.508;12.252;2023-02-01T15:20:01;70.45;;;47.97;;
38785;SDS011;24535;45.508;12.252;2023-02-01T15:22:38;67.40;;;45.20;;
38785;SDS011;24535;45.508;12.252;2023-02-01T15:25:03;82.15;;;56.35;;
38785;SDS011;24535;45.508;12.252;2023-02-01T15:27:30;62.72;;;43.95;;
38785;SDS011;24535;45.508;12.252;2023-02-01T15:30:16;61.05;;;43.05;;
38785;SDS011;24535;45.508;12.252;2023-02-01T15:32:43;60.35;;;41.53;;
38785;SDS011;24535;45.508;12.252;2023-02-01T15:38:25;61.00;;;43.45;;
38785;SDS011;24535;45.508;12.252;2023-02-01T15:40:57;64.35;;;43.72;;
38785;SDS011;24535;45.508;12.252;2023-02-01T15:43:34;62.28;;;42.58;;
38785;SDS011;24535;45.508;12.252;2023-02-01T15:46:13;67.53;;;45.17;;
38785;SDS011;24535;45.508;12.252;2023-02-01T15:48:46;67.28;;;44.58;;
38785;SDS011;24535;45.508;12.252;2023-02-01T15:51:19;68.63;;;44.85;;
38785;SDS011;24535;45.508;12.252;2023-02-01T15:53:48;62.83;;;45.80;;
38785;SDS011;24535;45.508;12.252;2023-02-01T15:56:23;63.45;;;43.55;;
38785;SDS011;24535;45.508;12.252;2023-02-01T15:58:52;82.05;;;54.90;;
38785;SDS011;24535;45.508;12.252;2023-02-01T16:01:19;98.60;;;62.67;;
38785;SDS011;24535;45.508;12.252;2023-02-01T16:03:46;104.40;;;66.28;;
38785;SDS011;24535;45.508;12.252;2023-02-01T16:08:52;88.43;;;60.17;;
38785;SDS011;24535;45.508;12.252;2023-02-01T16:11:47;95.20;;;62.83;;
38785;SDS011;24535;45.508;12.252;2023-02-01T16:14:13;78.97;;;53.13;;
38785;SDS011;24535;45.508;12.252;2023-02-01T16:16:38;100.72;;;65.30;;
38785;SDS011;24535;45.508;12.252;2023-02-01T16:19:04;93.43;;;63.75;;
38785;SDS011;24535;45.508;12.252;2023-02-01T16:21:29;100.13;;;68.63;;
38785;SDS011;24535;45.508;12.252;2023-02-01T16:23:55;99.97;;;67.32;;
38785;SDS011;24535;45.508;12.252;2023-02-01T16:26:20;106.55;;;64.95;;
38785;SDS011;24535;45.508;12.252;2023-02-01T16:28:46;115.10;;;72.88;;
38785;SDS011;24535;45.508;12.252;2023-02-01T16:31:13;96.57;;;66.47;;
38785;SDS011;24535;45.508;12.252;2023-02-01T16:33:50;87.00;;;58.60;;
38785;SDS011;24535;45.508;12.252;2023-02-01T16:36:17;95.97;;;63.92;;
38785;SDS011;24535;45.508;12.252;2023-02-01T16:38:45;90.78;;;62.00;;
38785;SDS011;24535;45.508;12.252;2023-02-01T16:41:13;104.20;;;67.97;;
38785;SDS011;24535;45.508;12.252;2023-02-01T16:43:39;108.68;;;69.47;;
38785;SDS011;24535;45.508;12.252;2023-02-01T16:46:05;98.82;;;68.18;;
38785;SDS011;24535;45.508;12.252;2023-02-01T16:48:38;106.50;;;71.32;;